createdAt,value
2022-09-28T00:00:34.315Z,13.38
2022-09-28T00:03:02.831Z,13.52
2022-09-28T00:05:33.257Z,13.63
2022-09-28T00:08:01.079Z,13.65
2022-09-28T00:10:29.675Z,13.25
2022-09-28T00:13:00.696Z,11.90
2022-09-28T00:15:28.311Z,12.49
2022-09-28T00:17:58.901Z,11.74
2022-09-28T00:20:34.978Z,12.65
2022-09-28T00:23:03.027Z,11.95
2022-09-28T00:25:32.995Z,12.28
2022-09-28T00:28:00.626Z,12.07
2022-09-28T00:30:29.007Z,11.39
2022-09-28T00:32:56.939Z,11.66
2022-09-28T00:35:25.419Z,12.24
2022-09-28T00:37:53.667Z,12.41
2022-09-28T00:40:26.767Z,12.32
2022-09-28T00:43:00.263Z,12.35
2022-09-28T00:45:45.022Z,12.49
2022-09-28T00:48:13.170Z,12.48
2022-09-28T00:50:43.948Z,12.93
2022-09-28T00:53:24.281Z,12.97
2022-09-28T00:55:55.568Z,12.89
2022-09-28T00:58:27.729Z,12.78
2022-09-28T01:01:04.520Z,12.95
2022-09-28T01:03:33.006Z,12.84
2022-09-28T01:06:03.447Z,12.98
2022-09-28T01:08:35.510Z,13.30
2022-09-28T01:11:03.822Z,13.58
2022-09-28T01:13:32.930Z,13.55
2022-09-28T01:16:24.926Z,13.55
2022-09-28T01:19:19.869Z,13.22
2022-09-28T01:22:11.217Z,13.47
2022-09-28T01:25:16.631Z,13.37
2022-09-28T01:27:54.906Z,13.60
2022-09-28T01:30:25.464Z,13.60
2022-09-28T01:33:08.910Z,13.67
2022-09-28T01:35:44.502Z,13.32
2022-09-28T01:38:22.542Z,13.51
2022-09-28T01:40:55.711Z,13.36
2022-09-28T01:43:30.578Z,13.66
2022-09-28T01:46:14.896Z,13.37
2022-09-28T01:48:53.430Z,14.00
2022-09-28T01:51:36.016Z,14.06
2022-09-28T01:54:28.837Z,13.93
2022-09-28T01:57:20.550Z,14.03
2022-09-28T02:00:10.889Z,14.27
2022-09-28T02:02:55.688Z,14.21
2022-09-28T02:05:29.575Z,13.51
2022-09-28T02:08:10.195Z,13.95
2022-09-28T02:10:44.757Z,14.21
2022-09-28T02:13:24.675Z,14.01
2022-09-28T02:16:07.066Z,14.36
2022-09-28T02:18:34.783Z,14.12
2022-09-28T02:21:12.910Z,13.77
2022-09-28T02:24:01.101Z,13.82
2022-09-28T02:26:36.607Z,14.23
2022-09-28T02:29:08.004Z,13.93
2022-09-28T02:31:41.258Z,13.74
2022-09-28T02:34:12.115Z,13.79
2022-09-28T02:36:45.281Z,14.01
2022-09-28T02:39:19.196Z,14.11
2022-09-28T02:42:26.069Z,13.94
2022-09-28T02:45:06.426Z,13.65
2022-09-28T02:48:01.321Z,13.99
2022-09-28T02:50:57.197Z,14.00
2022-09-28T02:54:02.660Z,14.10
2022-09-28T02:57:07.789Z,12.78
2022-09-28T02:59:45.629Z,13.07
2022-09-28T03:02:54.561Z,12.41
2022-09-28T03:05:38.116Z,12.26
2022-09-28T03:08:30.596Z,13.13
2022-09-28T03:11:03.099Z,13.50
2022-09-28T03:13:31.819Z,13.09
2022-09-28T03:16:19.164Z,12.75
2022-09-28T03:18:48.886Z,12.61
2022-09-28T03:21:19.567Z,12.52
2022-09-28T03:23:47.978Z,12.96
2022-09-28T03:26:17.151Z,12.90
2022-09-28T03:28:44.926Z,11.80
2022-09-28T03:31:12.926Z,12.34
2022-09-28T03:33:41.275Z,12.70
2022-09-28T03:36:10.759Z,13.16
2022-09-28T03:38:38.891Z,13.24
2022-09-28T03:41:08.058Z,13.26
2022-09-28T03:43:36.150Z,12.58
2022-09-28T03:46:04.215Z,12.83
2022-09-28T03:48:35.216Z,12.34
2022-09-28T03:51:07.207Z,11.52
2022-09-28T03:53:38.429Z,11.88
2022-09-28T03:56:15.644Z,12.41
2022-09-28T03:58:56.262Z,12.70
2022-09-28T04:01:27.353Z,12.50
2022-09-28T04:03:56.195Z,12.71
2022-09-28T04:06:28.154Z,12.97
2022-09-28T04:08:59.481Z,13.00
2022-09-28T04:11:53.164Z,12.79
2022-09-28T04:14:31.327Z,12.84
2022-09-28T04:17:05.882Z,11.78
2022-09-28T04:19:43.101Z,11.91
2022-09-28T04:22:16.947Z,12.09
2022-09-28T04:24:49.331Z,12.13
2022-09-28T04:27:36.951Z,12.60
2022-09-28T04:30:12.567Z,11.56
2022-09-28T04:32:42.319Z,12.22
2022-09-28T04:35:15.888Z,11.92
2022-09-28T04:37:44.815Z,11.51
2022-09-28T04:40:13.744Z,11.53
2022-09-28T04:42:43.122Z,11.82
2022-09-28T04:45:11.640Z,11.63
2022-09-28T04:47:41.773Z,11.92
2022-09-28T04:50:12.219Z,11.56
2022-09-28T04:53:09.790Z,10.62
2022-09-28T04:55:38.402Z,10.72
2022-09-28T04:58:08.718Z,10.54
2022-09-28T05:00:39.462Z,10.46
2022-09-28T05:03:13.915Z,10.04
2022-09-28T05:06:08.752Z,10.24
2022-09-28T05:08:38.684Z,10.20
2022-09-28T05:11:20.119Z,10.48
2022-09-28T05:13:52.382Z,10.27
2022-09-28T05:16:21.346Z,10.22
2022-09-28T05:19:07.334Z,10.50
2022-09-28T05:21:40.005Z,10.74
2022-09-28T05:24:11.052Z,10.34
2022-09-28T05:26:46.618Z,10.60
2022-09-28T05:29:16.015Z,10.46
2022-09-28T05:31:48.702Z,10.11
2022-09-28T05:34:19.133Z,10.64
2022-09-28T05:36:51.566Z,10.25
2022-09-28T05:39:23.798Z,10.36
2022-09-28T05:41:58.434Z,10.84
2022-09-28T05:44:42.034Z,11.41
2022-09-28T05:47:20.335Z,11.74
2022-09-28T05:49:54.006Z,11.62
2022-09-28T05:52:38.654Z,11.78
2022-09-28T05:55:11.080Z,12.20
2022-09-28T05:57:39.125Z,12.47
2022-09-28T06:00:09.778Z,12.30
2022-09-28T06:02:40.289Z,12.67
2022-09-28T06:05:08.867Z,12.51
2022-09-28T06:07:36.974Z,12.83
2022-09-28T06:10:05.152Z,12.47
2022-09-28T06:12:33.900Z,12.77
2022-09-28T06:15:04.394Z,13.12
2022-09-28T06:17:40.975Z,13.20
2022-09-28T06:20:12.514Z,13.51
2022-09-28T06:22:52.265Z,13.83
2022-09-28T06:25:22.443Z,13.68
2022-09-28T06:27:56.724Z,13.86
2022-09-28T06:30:27.454Z,14.01
2022-09-28T06:33:00.927Z,14.12
2022-09-28T06:35:33.184Z,13.97
2022-09-28T06:38:04.613Z,13.95
2022-09-28T06:40:33.747Z,13.61
2022-09-28T06:43:14.897Z,13.82
2022-09-28T06:45:55.319Z,13.66
2022-09-28T06:48:30.238Z,13.91
2022-09-28T06:50:58.883Z,14.17
2022-09-28T06:53:33.854Z,14.33
2022-09-28T06:56:03.662Z,14.68
2022-09-28T06:58:35.273Z,14.62
2022-09-28T07:01:05.129Z,14.97
2022-09-28T07:03:42.110Z,14.96
2022-09-28T07:06:21.461Z,15.34
2022-09-28T07:09:01.943Z,15.52
2022-09-28T07:11:44.568Z,15.65
2022-09-28T07:14:30.446Z,15.61
2022-09-28T07:17:14.033Z,15.57
2022-09-28T07:19:45.175Z,15.59
2022-09-28T07:22:18.833Z,15.69
2022-09-28T07:24:48.948Z,15.77
2022-09-28T07:27:21.894Z,15.76
2022-09-28T07:29:55.473Z,16.14
2022-09-28T07:32:24.274Z,15.83
2022-09-28T07:34:58.908Z,15.67
2022-09-28T07:37:38.351Z,16.16
2022-09-28T07:40:32.193Z,15.87
2022-09-28T07:43:07.835Z,15.81
2022-09-28T07:45:38.575Z,15.90
2022-09-28T07:48:16.458Z,15.96
2022-09-28T07:51:02.229Z,15.91
2022-09-28T07:53:32.160Z,16.00
2022-09-28T07:56:17.586Z,15.84
2022-09-28T07:58:47.613Z,15.10
2022-09-28T08:01:22.167Z,14.94
2022-09-28T08:03:56.640Z,15.50
2022-09-28T08:06:30.960Z,15.50
2022-09-28T08:09:03.273Z,15.62
2022-09-28T08:11:53.570Z,15.56
2022-09-28T08:14:25.018Z,15.61
2022-09-28T08:16:54.541Z,15.70
2022-09-28T08:19:25.454Z,16.11
2022-09-28T08:22:01.449Z,15.80
2022-09-28T08:24:31.206Z,15.96
2022-09-28T08:27:07.262Z,15.94
2022-09-28T08:29:50.454Z,15.85
2022-09-28T08:32:50.174Z,15.89
2022-09-28T08:35:32.017Z,16.17
2022-09-28T08:38:06.722Z,15.93
2022-09-28T08:40:58.566Z,15.74
2022-09-28T08:43:51.123Z,16.01
2022-09-28T08:46:27.283Z,16.30
2022-09-28T08:52:36.774Z,15.97
2022-09-28T08:55:53.794Z,16.17
2022-09-28T08:58:33.131Z,16.30
2022-09-28T09:01:16.826Z,16.44
2022-09-28T09:04:01.302Z,16.51
2022-09-28T09:06:56.244Z,16.40
2022-09-28T09:09:43.159Z,16.65
2022-09-28T09:12:24.932Z,16.23
2022-09-28T09:15:24.672Z,16.41
2022-09-28T09:18:20.052Z,16.38
2022-09-28T09:21:06.571Z,16.33
2022-09-28T09:23:59.893Z,16.67
2022-09-28T09:26:40.665Z,16.70
2022-09-28T09:29:36.707Z,16.89
2022-09-28T09:32:25.398Z,16.71
2022-09-28T09:35:06.427Z,16.69
2022-09-28T09:38:02.678Z,16.60
2022-09-28T09:40:36.989Z,16.85
2022-09-28T09:43:47.582Z,17.14
2022-09-28T09:46:25.029Z,17.03
2022-09-28T09:49:20.884Z,17.22
2022-09-28T09:52:03.256Z,17.44
2022-09-28T09:54:47.471Z,17.42
2022-09-28T09:57:24.242Z,17.36
2022-09-28T10:00:14.489Z,17.45
2022-09-28T10:03:03.149Z,17.71
2022-09-28T10:05:50.589Z,17.74
2022-09-28T10:08:27.500Z,17.48
2022-09-28T10:11:54.157Z,17.39
2022-09-28T10:14:28.303Z,17.68
2022-09-28T10:17:04.208Z,17.57
2022-09-28T10:19:46.636Z,17.78
2022-09-28T10:22:32.339Z,17.75
2022-09-28T10:25:11.451Z,17.58
2022-09-28T10:27:46.785Z,17.93
2022-09-28T10:30:24.299Z,18.09
2022-09-28T10:32:59.632Z,18.32
2022-09-28T10:35:39.888Z,18.25
2022-09-28T10:38:18.924Z,18.57
2022-09-28T10:41:13.804Z,18.13
2022-09-28T10:44:14.240Z,18.19
2022-09-28T10:46:43.230Z,18.35
2022-09-28T10:49:18.502Z,18.21
2022-09-28T10:51:55.035Z,18.33
2022-09-28T10:54:33.739Z,17.90
2022-09-28T10:57:37.091Z,18.06
2022-09-28T11:00:07.457Z,18.31
2022-09-28T11:02:44.445Z,18.27
2022-09-28T11:05:24.547Z,18.48
2022-09-28T11:08:00.783Z,18.23
2022-09-28T11:10:31.077Z,17.85
2022-09-28T11:13:02.002Z,18.20
2022-09-28T11:15:32.531Z,18.32
2022-09-28T11:18:32.437Z,18.49
2022-09-28T11:21:28.024Z,18.68
2022-09-28T11:24:19.341Z,18.69
2022-09-28T11:26:50.122Z,18.81
2022-09-28T11:29:31.213Z,18.98
2022-09-28T11:32:13.679Z,18.88
2022-09-28T11:35:00.148Z,18.53
2022-09-28T11:37:54.695Z,18.96
2022-09-28T11:40:31.769Z,18.80
2022-09-28T11:43:50.038Z,18.90
2022-09-28T11:46:42.332Z,18.96
2022-09-28T11:49:36.643Z,18.93
2022-09-28T11:52:21.685Z,19.21
2022-09-28T11:55:30.377Z,18.81
2022-09-28T11:58:21.029Z,18.97
2022-09-28T12:01:04.511Z,18.80
2022-09-28T12:03:48.915Z,18.95
2022-09-28T12:06:25.772Z,19.18
2022-09-28T12:09:07.023Z,18.82
2022-09-28T12:11:45.281Z,18.85
2022-09-28T12:14:24.907Z,18.78
2022-09-28T12:17:20.548Z,19.04
2022-09-28T12:20:22.013Z,18.81
2022-09-28T12:23:31.997Z,18.93
2022-09-28T12:26:19.196Z,18.49
2022-09-28T12:29:00.227Z,19.03
2022-09-28T12:31:38.485Z,18.88
2022-09-28T12:34:17.315Z,18.81
2022-09-28T12:37:02.311Z,18.83
2022-09-28T12:39:57.964Z,19.05
2022-09-28T12:42:45.416Z,19.05
2022-09-28T12:46:10.346Z,19.30
2022-09-28T12:50:20.070Z,19.19
2022-09-28T12:52:42.443Z,19.50
2022-09-28T12:55:31.152Z,19.71
2022-09-28T12:58:28.871Z,19.86
2022-09-28T13:01:12.221Z,20.04
2022-09-28T13:03:53.668Z,20.22
2022-09-28T13:06:34.570Z,20.05
2022-09-28T13:09:27.297Z,20.09
2022-09-28T13:12:16.191Z,20.43
2022-09-28T13:14:54.092Z,20.05
2022-09-28T13:17:46.192Z,19.76
2022-09-28T13:20:23.544Z,19.79
2022-09-28T13:23:10.183Z,19.72
2022-09-28T13:25:59.037Z,19.97
2022-09-28T13:28:37.687Z,19.75
2022-09-28T13:31:09.641Z,19.64
2022-09-28T13:33:43.681Z,19.39
2022-09-28T13:36:31.262Z,19.46
2022-09-28T13:39:04.724Z,19.53
2022-09-28T13:41:47.783Z,19.67
2022-09-28T13:44:42.305Z,19.84
2022-09-28T13:47:39.477Z,19.63
2022-09-28T13:50:28.898Z,19.45
2022-09-28T13:53:23.785Z,19.33
2022-09-28T13:55:57.475Z,19.65
2022-09-28T13:58:50.342Z,19.56
2022-09-28T14:01:44.459Z,19.55
2022-09-28T14:04:21.023Z,19.78
2022-09-28T14:06:57.793Z,19.42
2022-09-28T14:09:56.095Z,19.39
2022-09-28T14:12:46.745Z,19.32
2022-09-28T14:15:30.994Z,19.06
2022-09-28T14:18:44.215Z,19.29
2022-09-28T14:21:40.951Z,19.28
2022-09-28T14:24:36.883Z,19.00
2022-09-28T14:27:51.160Z,19.41
2022-09-28T14:30:21.470Z,19.02
2022-09-28T14:32:58.657Z,19.03
2022-09-28T14:35:31.809Z,18.96
2022-09-28T14:38:38.966Z,18.77
2022-09-28T14:41:27.549Z,19.10
2022-09-28T14:44:10.890Z,19.15
2022-09-28T14:46:45.909Z,19.04
2022-09-28T14:49:23.413Z,19.14
2022-09-28T14:51:58.419Z,19.03
2022-09-28T14:54:40.103Z,19.02
2022-09-28T14:57:22.683Z,18.99
2022-09-28T14:59:56.592Z,18.87
2022-09-28T15:02:30.166Z,19.11
2022-09-28T15:05:24.491Z,19.05
2022-09-28T15:07:58.133Z,18.97
2022-09-28T15:10:34.773Z,19.09
2022-09-28T15:13:21.440Z,18.76
2022-09-28T15:16:16.893Z,18.88
2022-09-28T15:19:11.649Z,18.77
2022-09-28T15:21:43.656Z,18.76
2022-09-28T15:24:32.109Z,18.67
2022-09-28T15:27:04.530Z,18.66
2022-09-28T15:29:38.425Z,18.71
2022-09-28T15:32:30.068Z,18.90
2022-09-28T15:35:20.056Z,18.68
2022-09-28T15:37:55.670Z,18.69
2022-09-28T15:40:38.301Z,18.86
2022-09-28T15:43:33.753Z,18.66
2022-09-28T15:46:31.754Z,18.66
2022-09-28T15:49:08.759Z,18.46
2022-09-28T15:51:53.875Z,18.59
2022-09-28T15:54:36.843Z,18.70
2022-09-28T15:57:06.763Z,18.68
2022-09-28T15:59:40.319Z,18.37
2022-09-28T16:02:29.616Z,18.68
2022-09-28T16:05:01.853Z,18.51
2022-09-28T16:07:38.681Z,18.63
2022-09-28T16:10:13.747Z,18.55
2022-09-28T16:12:59.377Z,18.54
2022-09-28T16:15:39.176Z,18.57
2022-09-28T16:18:23.923Z,18.54
2022-09-28T16:21:22.023Z,18.41
2022-09-28T16:23:58.645Z,18.46
2022-09-28T16:27:00.390Z,18.18
2022-09-28T16:29:45.116Z,18.31
2022-09-28T16:32:26.959Z,18.31
2022-09-28T16:35:14.208Z,18.08
2022-09-28T16:37:43.501Z,18.19
2022-09-28T16:40:16.972Z,18.04
2022-09-28T16:42:49.590Z,18.10
2022-09-28T16:45:20.886Z,18.42
2022-09-28T16:47:56.652Z,18.16
2022-09-28T16:50:25.730Z,18.07
2022-09-28T16:53:26.017Z,18.02
2022-09-28T16:56:01.831Z,17.91
2022-09-28T16:58:36.353Z,18.06
2022-09-28T17:01:10.417Z,17.99
2022-09-28T17:03:42.546Z,18.13
2022-09-28T17:06:16.285Z,18.21
2022-09-28T17:08:47.647Z,18.30
2022-09-28T17:11:23.625Z,18.02
2022-09-28T17:13:59.426Z,17.89
2022-09-28T17:16:57.666Z,18.04
2022-09-28T17:19:32.398Z,17.93
2022-09-28T17:22:18.731Z,18.07
2022-09-28T17:25:01.091Z,18.17
2022-09-28T17:27:35.229Z,18.04
2022-09-28T17:30:09.423Z,18.06
2022-09-28T17:32:46.907Z,17.94
2022-09-28T17:35:25.034Z,18.03
2022-09-28T17:37:59.788Z,18.12
2022-09-28T17:40:40.421Z,17.90
2022-09-28T17:43:16.891Z,17.75
2022-09-28T17:45:48.203Z,17.79
2022-09-28T17:48:26.154Z,17.47
2022-09-28T17:50:56.980Z,17.50
2022-09-28T17:53:26.845Z,17.67
2022-09-28T17:56:00.384Z,17.55
2022-09-28T17:58:35.702Z,17.77
2022-09-28T18:01:05.757Z,17.35
2022-09-28T18:03:38.771Z,17.36
2022-09-28T18:06:14.896Z,17.43
2022-09-28T18:08:47.570Z,17.30
2022-09-28T18:11:23.496Z,17.34
2022-09-28T18:13:53.312Z,17.20
2022-09-28T18:16:26.263Z,17.36
2022-09-28T18:19:00.734Z,17.21
2022-09-28T18:21:44.433Z,17.17
2022-09-28T18:24:13.357Z,17.38
2022-09-28T18:26:42.055Z,17.10
2022-09-28T18:29:11.008Z,17.25
2022-09-28T18:31:42.887Z,17.13
2022-09-28T18:34:12.760Z,17.12
2022-09-28T18:36:45.527Z,16.86
2022-09-28T18:39:14.450Z,16.86
2022-09-28T18:41:46.157Z,16.91
2022-09-28T18:44:20.936Z,16.96
2022-09-28T18:46:51.821Z,16.73
2022-09-28T18:49:37.256Z,16.74
2022-09-28T18:52:17.653Z,16.68
2022-09-28T18:54:47.075Z,16.52
2022-09-28T18:57:17.460Z,16.64
2022-09-28T18:59:45.900Z,16.75
2022-09-28T19:02:15.158Z,16.83
2022-09-28T19:04:44.631Z,16.69
2022-09-28T19:07:14.427Z,16.86
2022-09-28T19:09:48.356Z,16.86
2022-09-28T19:12:16.944Z,16.80
2022-09-28T19:14:45.501Z,16.59
2022-09-28T19:17:14.067Z,16.87
2022-09-28T19:19:48.674Z,16.75
2022-09-28T19:22:18.247Z,16.61
2022-09-28T19:24:49.591Z,16.72
2022-09-28T19:27:26.828Z,16.89
2022-09-28T19:29:57.914Z,16.77
2022-09-28T19:32:33.290Z,16.68
2022-09-28T19:35:09.340Z,16.74
2022-09-28T19:37:40.188Z,16.79
2022-09-28T19:40:10.699Z,16.74
2022-09-28T19:42:43.667Z,16.45
2022-09-28T19:45:15.897Z,16.56
2022-09-28T19:47:44.627Z,16.71
2022-09-28T19:50:16.278Z,16.75
2022-09-28T19:52:45.943Z,16.75
2022-09-28T19:55:21.934Z,16.66
2022-09-28T19:57:53.141Z,16.71
2022-09-28T20:00:22.311Z,16.69
2022-09-28T20:02:57.142Z,16.75
2022-09-28T20:05:26.254Z,16.64
2022-09-28T20:07:58.839Z,16.68
2022-09-28T20:10:27.354Z,16.58
2022-09-28T20:13:00.108Z,16.32
2022-09-28T20:15:30.567Z,16.47
2022-09-28T20:18:01.396Z,16.50
2022-09-28T20:20:30.041Z,16.08
2022-09-28T20:22:58.736Z,16.45
2022-09-28T20:25:30.108Z,16.47
2022-09-28T20:27:59.742Z,16.18
2022-09-28T20:30:33.487Z,16.52
2022-09-28T20:33:07.061Z,16.57
2022-09-28T20:35:56.149Z,16.28
2022-09-28T20:38:24.489Z,16.53
2022-09-28T20:41:00.322Z,16.59
2022-09-28T20:43:35.113Z,16.40
2022-09-28T20:46:08.515Z,16.61
2022-09-28T20:48:43.079Z,16.67
2022-09-28T20:51:18.588Z,16.58
2022-09-28T20:53:55.606Z,16.67
2022-09-28T20:56:30.585Z,16.72
2022-09-28T20:58:59.907Z,16.51
2022-09-28T21:01:30.173Z,16.46
2022-09-28T21:04:07.215Z,16.60
2022-09-28T21:06:43.626Z,16.86
2022-09-28T21:09:12.714Z,16.50
2022-09-28T21:11:42.109Z,16.69
2022-09-28T21:14:10.426Z,16.66
2022-09-28T21:16:39.219Z,16.52
2022-09-28T21:19:14.857Z,16.46
2022-09-28T21:21:45.172Z,16.40
2022-09-28T21:24:15.133Z,16.31
2022-09-28T21:26:44.556Z,15.99
2022-09-28T21:29:20.452Z,16.07
2022-09-28T21:31:50.418Z,16.15
2022-09-28T21:34:20.072Z,16.04
2022-09-28T21:36:51.428Z,16.23
2022-09-28T21:39:28.494Z,16.59
2022-09-28T21:41:59.423Z,16.29
2022-09-28T21:44:28.186Z,15.95
2022-09-28T21:46:55.732Z,16.26
2022-09-28T21:49:23.800Z,15.57
2022-09-28T21:51:55.627Z,15.80
2022-09-28T21:54:26.476Z,16.21
2022-09-28T21:57:07.996Z,16.01
2022-09-28T21:59:37.913Z,16.03
2022-09-28T22:02:06.598Z,16.03
2022-09-28T22:04:41.034Z,16.12
